sensor_id;sensor_type;location;lat;lon;timestamp;P1;durP1;ratioP1;P2;durP2;ratioP2
11006;SDS011;8186;57.652;11.968;2023-12-28T00:02:00;2.30;;;0.70;;
11006;SDS011;8186;57.652;11.968;2023-12-28T00:04:27;3.00;;;0.90;;
11006;SDS011;8186;57.652;11.968;2023-12-28T00:06:57;1.30;;;0.80;;
11006;SDS011;8186;57.652;11.968;2023-12-28T00:09:24;6.73;;;0.90;;
11006;SDS011;8186;57.652;11.968;2023-12-28T00:11:50;1.63;;;0.70;;
11006;SDS011;8186;57.652;11.968;2023-12-28T00:14:17;0.83;;;0.77;;
11006;SDS011;8186;57.652;11.968;2023-12-28T00:16:44;2.20;;;1.03;;
11006;SDS011;8186;57.652;11.968;2023-12-28T00:19:11;3.43;;;0.70;;
11006;SDS011;8186;57.652;11.968;2023-12-28T00:21:37;1.70;;;0.83;;
11006;SDS011;8186;57.652;11.968;2023-12-28T00:24:06;1.20;;;0.80;;
11006;SDS011;8186;57.652;11.968;2023-12-28T00:26:33;2.10;;;0.73;;
11006;SDS011;8186;57.652;11.968;2023-12-28T00:29:00;0.90;;;0.67;;
11006;SDS011;8186;57.652;11.968;2023-12-28T00:31:27;1.73;;;0.90;;
11006;SDS011;8186;57.652;11.968;2023-12-28T00:33:53;2.03;;;1.00;;
11006;SDS011;8186;57.652;11.968;2023-12-28T00:36:20;3.43;;;0.80;;
11006;SDS011;8186;57.652;11.968;2023-12-28T00:38:47;2.23;;;0.70;;
11006;SDS011;8186;57.652;11.968;2023-12-28T00:41:15;0.60;;;0.60;;
11006;SDS011;8186;57.652;11.968;2023-12-28T00:43:42;4.27;;;1.00;;
11006;SDS011;8186;57.652;11.968;2023-12-28T00:46:08;2.27;;;0.60;;
11006;SDS011;8186;57.652;11.968;2023-12-28T00:48:36;0.97;;;0.70;;
11006;SDS011;8186;57.652;11.968;2023-12-28T00:51:03;1.90;;;0.70;;
11006;SDS011;8186;57.652;11.968;2023-12-28T00:53:30;1.97;;;0.60;;
11006;SDS011;8186;57.652;11.968;2023-12-28T00:55:56;1.50;;;0.70;;
11006;SDS011;8186;57.652;11.968;2023-12-28T00:58:24;2.17;;;0.77;;
11006;SDS011;8186;57.652;11.968;2023-12-28T01:00:51;2.50;;;0.70;;
11006;SDS011;8186;57.652;11.968;2023-12-28T01:03:21;1.73;;;0.70;;
11006;SDS011;8186;57.652;11.968;2023-12-28T01:05:47;0.67;;;0.60;;
11006;SDS011;8186;57.652;11.968;2023-12-28T01:08:15;1.30;;;0.67;;
11006;SDS011;8186;57.652;11.968;2023-12-28T01:10:42;0.87;;;0.50;;
11006;SDS011;8186;57.652;11.968;2023-12-28T01:13:09;0.60;;;0.50;;
11006;SDS011;8186;57.652;11.968;2023-12-28T01:15:37;2.27;;;0.70;;
11006;SDS011;8186;57.652;11.968;2023-12-28T01:18:04;1.63;;;0.60;;
11006;SDS011;8186;57.652;11.968;2023-12-28T01:20:32;2.27;;;0.50;;
11006;SDS011;8186;57.652;11.968;2023-12-28T01:23:00;0.80;;;0.60;;
11006;SDS011;8186;57.652;11.968;2023-12-28T01:25:27;1.53;;;0.80;;
11006;SDS011;8186;57.652;11.968;2023-12-28T01:27:54;0.70;;;0.70;;
11006;SDS011;8186;57.652;11.968;2023-12-28T01:30:20;0.60;;;0.60;;
11006;SDS011;8186;57.652;11.968;2023-12-28T01:32:49;1.00;;;0.60;;
11006;SDS011;8186;57.652;11.968;2023-12-28T01:35:15;0.77;;;0.60;;
11006;SDS011;8186;57.652;11.968;2023-12-28T01:37:42;1.80;;;0.57;;
11006;SDS011;8186;57.652;11.968;2023-12-28T01:40:09;1.10;;;0.50;;
11006;SDS011;8186;57.652;11.968;2023-12-28T01:42:37;0.50;;;0.50;;
11006;SDS011;8186;57.652;11.968;2023-12-28T01:45:04;2.43;;;0.60;;
11006;SDS011;8186;57.652;11.968;2023-12-28T01:47:32;0.80;;;0.73;;
11006;SDS011;8186;57.652;11.968;2023-12-28T01:50:00;0.60;;;0.50;;
11006;SDS011;8186;57.652;11.968;2023-12-28T01:52:27;1.47;;;0.60;;
11006;SDS011;8186;57.652;11.968;2023-12-28T01:54:54;1.23;;;0.60;;
11006;SDS011;8186;57.652;11.968;2023-12-28T01:57:21;1.37;;;0.30;;
11006;SDS011;8186;57.652;11.968;2023-12-28T01:59:48;1.33;;;0.53;;
11006;SDS011;8186;57.652;11.968;2023-12-28T02:02:15;0.60;;;0.43;;
11006;SDS011;8186;57.652;11.968;2023-12-28T02:04:42;0.83;;;0.50;;
11006;SDS011;8186;57.652;11.968;2023-12-28T02:07:11;1.07;;;0.50;;
11006;SDS011;8186;57.652;11.968;2023-12-28T02:09:39;0.83;;;0.50;;
11006;SDS011;8186;57.652;11.968;2023-12-28T02:12:06;0.50;;;0.50;;
11006;SDS011;8186;57.652;11.968;2023-12-28T02:14:33;0.73;;;0.50;;
11006;SDS011;8186;57.652;11.968;2023-12-28T02:17:00;0.80;;;0.40;;
11006;SDS011;8186;57.652;11.968;2023-12-28T02:19:31;0.63;;;0.50;;
11006;SDS011;8186;57.652;11.968;2023-12-28T02:21:59;0.80;;;0.60;;
11006;SDS011;8186;57.652;11.968;2023-12-28T02:24:27;0.80;;;0.50;;
11006;SDS011;8186;57.652;11.968;2023-12-28T02:26:55;0.60;;;0.60;;
11006;SDS011;8186;57.652;11.968;2023-12-28T02:29:22;1.17;;;1.00;;
11006;SDS011;8186;57.652;11.968;2023-12-28T02:31:50;0.30;;;0.30;;
11006;SDS011;8186;57.652;11.968;2023-12-28T02:34:36;0.47;;;0.43;;
11006;SDS011;8186;57.652;11.968;2023-12-28T02:37:04;0.77;;;0.40;;
11006;SDS011;8186;57.652;11.968;2023-12-28T02:39:31;2.07;;;0.40;;
11006;SDS011;8186;57.652;11.968;2023-12-28T02:41:59;0.40;;;0.40;;
11006;SDS011;8186;57.652;11.968;2023-12-28T02:44:26;1.63;;;0.40;;
11006;SDS011;8186;57.652;11.968;2023-12-28T02:46:53;2.70;;;0.40;;
11006;SDS011;8186;57.652;11.968;2023-12-28T02:49:20;0.40;;;0.40;;
11006;SDS011;8186;57.652;11.968;2023-12-28T02:51:47;0.37;;;0.30;;
11006;SDS011;8186;57.652;11.968;2023-12-28T02:54:13;0.30;;;0.30;;
11006;SDS011;8186;57.652;11.968;2023-12-28T02:56:40;0.80;;;0.40;;
11006;SDS011;8186;57.652;11.968;2023-12-28T02:59:08;0.30;;;0.30;;
11006;SDS011;8186;57.652;11.968;2023-12-28T03:01:35;0.80;;;0.40;;
11006;SDS011;8186;57.652;11.968;2023-12-28T03:04:02;1.80;;;0.50;;
11006;SDS011;8186;57.652;11.968;2023-12-28T03:06:29;0.30;;;0.30;;
11006;SDS011;8186;57.652;11.968;2023-12-28T03:08:55;0.77;;;0.37;;
11006;SDS011;8186;57.652;11.968;2023-12-28T03:11:22;0.40;;;0.20;;
11006;SDS011;8186;57.652;11.968;2023-12-28T03:13:49;0.90;;;0.37;;
11006;SDS011;8186;57.652;11.968;2023-12-28T03:16:17;1.40;;;0.30;;
11006;SDS011;8186;57.652;11.968;2023-12-28T03:18:44;0.60;;;0.40;;
11006;SDS011;8186;57.652;11.968;2023-12-28T03:21:11;0.47;;;0.40;;
11006;SDS011;8186;57.652;11.968;2023-12-28T03:23:37;1.93;;;0.37;;
11006;SDS011;8186;57.652;11.968;2023-12-28T03:26:04;0.83;;;0.40;;
11006;SDS011;8186;57.652;11.968;2023-12-28T03:28:31;0.30;;;0.30;;
11006;SDS011;8186;57.652;11.968;2023-12-28T03:30:58;0.40;;;0.40;;
11006;SDS011;8186;57.652;11.968;2023-12-28T03:33:26;0.40;;;0.30;;
11006;SDS011;8186;57.652;11.968;2023-12-28T03:35:53;0.43;;;0.30;;
11006;SDS011;8186;57.652;11.968;2023-12-28T03:38:20;0.20;;;0.20;;
11006;SDS011;8186;57.652;11.968;2023-12-28T03:40:47;0.30;;;0.30;;
11006;SDS011;8186;57.652;11.968;2023-12-28T03:43:15;3.60;;;0.40;;
11006;SDS011;8186;57.652;11.968;2023-12-28T03:45:42;0.30;;;0.30;;
11006;SDS011;8186;57.652;11.968;2023-12-28T03:48:08;0.33;;;0.33;;
11006;SDS011;8186;57.652;11.968;2023-12-28T03:50:36;0.30;;;0.30;;
11006;SDS011;8186;57.652;11.968;2023-12-28T03:53:03;0.30;;;0.30;;
11006;SDS011;8186;57.652;11.968;2023-12-28T03:55:30;0.30;;;0.30;;
11006;SDS011;8186;57.652;11.968;2023-12-28T03:57:57;1.80;;;0.30;;
11006;SDS011;8186;57.652;11.968;2023-12-28T04:00:24;0.47;;;0.47;;
11006;SDS011;8186;57.652;11.968;2023-12-28T04:02:51;0.30;;;0.30;;
11006;SDS011;8186;57.652;11.968;2023-12-28T04:05:17;0.30;;;0.30;;
11006;SDS011;8186;57.652;11.968;2023-12-28T04:07:45;0.30;;;0.30;;
11006;SDS011;8186;57.652;11.968;2023-12-28T04:10:12;0.50;;;0.37;;
11006;SDS011;8186;57.652;11.968;2023-12-28T04:12:39;1.33;;;0.40;;
11006;SDS011;8186;57.652;11.968;2023-12-28T04:15:06;0.63;;;0.50;;
11006;SDS011;8186;57.652;11.968;2023-12-28T04:17:33;0.30;;;0.30;;
11006;SDS011;8186;57.652;11.968;2023-12-28T04:19:59;0.43;;;0.40;;
11006;SDS011;8186;57.652;11.968;2023-12-28T04:22:26;0.30;;;0.30;;
11006;SDS011;8186;57.652;11.968;2023-12-28T04:24:54;0.40;;;0.40;;
11006;SDS011;8186;57.652;11.968;2023-12-28T04:27:21;1.73;;;0.50;;
11006;SDS011;8186;57.652;11.968;2023-12-28T04:29:48;0.50;;;0.50;;
11006;SDS011;8186;57.652;11.968;2023-12-28T04:32:15;0.40;;;0.40;;
11006;SDS011;8186;57.652;11.968;2023-12-28T04:34:42;0.50;;;0.50;;
11006;SDS011;8186;57.652;11.968;2023-12-28T04:37:08;0.70;;;0.40;;
11006;SDS011;8186;57.652;11.968;2023-12-28T04:39:35;0.57;;;0.57;;
11006;SDS011;8186;57.652;11.968;2023-12-28T04:42:04;0.53;;;0.30;;
11006;SDS011;8186;57.652;11.968;2023-12-28T04:44:31;0.40;;;0.40;;
11006;SDS011;8186;57.652;11.968;2023-12-28T04:46:58;1.30;;;0.60;;
11006;SDS011;8186;57.652;11.968;2023-12-28T04:49:26;2.30;;;0.70;;
11006;SDS011;8186;57.652;11.968;2023-12-28T04:51:53;0.43;;;0.43;;
11006;SDS011;8186;57.652;11.968;2023-12-28T04:54:20;0.87;;;0.70;;
11006;SDS011;8186;57.652;11.968;2023-12-28T04:56:47;1.90;;;0.70;;
11006;SDS011;8186;57.652;11.968;2023-12-28T04:59:15;2.70;;;0.67;;
11006;SDS011;8186;57.652;11.968;2023-12-28T05:01:42;2.27;;;0.90;;
11006;SDS011;8186;57.652;11.968;2023-12-28T05:04:09;3.00;;;0.73;;
11006;SDS011;8186;57.652;11.968;2023-12-28T05:06:36;1.33;;;0.87;;
11006;SDS011;8186;57.652;11.968;2023-12-28T05:09:03;3.33;;;1.40;;
11006;SDS011;8186;57.652;11.968;2023-12-28T05:11:30;4.80;;;1.00;;
11006;SDS011;8186;57.652;11.968;2023-12-28T05:13:57;4.60;;;1.07;;
11006;SDS011;8186;57.652;11.968;2023-12-28T05:16:25;2.00;;;1.07;;
11006;SDS011;8186;57.652;11.968;2023-12-28T05:18:52;5.07;;;1.47;;
11006;SDS011;8186;57.652;11.968;2023-12-28T05:21:19;4.07;;;1.77;;
11006;SDS011;8186;57.652;11.968;2023-12-28T05:23:46;8.90;;;1.87;;
11006;SDS011;8186;57.652;11.968;2023-12-28T05:26:12;9.50;;;2.30;;
11006;SDS011;8186;57.652;11.968;2023-12-28T05:28:39;6.13;;;2.13;;
11006;SDS011;8186;57.652;11.968;2023-12-28T05:31:06;9.93;;;2.57;;
11006;SDS011;8186;57.652;11.968;2023-12-28T05:33:34;5.10;;;2.60;;
11006;SDS011;8186;57.652;11.968;2023-12-28T05:36:01;9.53;;;2.80;;
11006;SDS011;8186;57.652;11.968;2023-12-28T05:38:28;9.80;;;2.97;;
11006;SDS011;8186;57.652;11.968;2023-12-28T05:40:54;20.80;;;3.60;;
11006;SDS011;8186;57.652;11.968;2023-12-28T05:43:21;14.23;;;3.83;;
11006;SDS011;8186;57.652;11.968;2023-12-28T05:45:48;13.10;;;4.50;;
11006;SDS011;8186;57.652;11.968;2023-12-28T05:48:15;23.70;;;5.67;;
11006;SDS011;8186;57.652;11.968;2023-12-28T05:50:43;30.23;;;5.97;;
11006;SDS011;8186;57.652;11.968;2023-12-28T05:53:09;20.30;;;5.20;;
11006;SDS011;8186;57.652;11.968;2023-12-28T05:55:39;25.87;;;6.07;;
11006;SDS011;8186;57.652;11.968;2023-12-28T05:58:05;23.13;;;5.80;;
11006;SDS011;8186;57.652;11.968;2023-12-28T06:00:32;25.37;;;5.63;;
11006;SDS011;8186;57.652;11.968;2023-12-28T06:03:01;17.67;;;5.40;;
11006;SDS011;8186;57.652;11.968;2023-12-28T06:05:27;20.93;;;4.60;;
11006;SDS011;8186;57.652;11.968;2023-12-28T06:07:55;25.10;;;6.37;;
11006;SDS011;8186;57.652;11.968;2023-12-28T06:10:22;21.13;;;5.80;;
11006;SDS011;8186;57.652;11.968;2023-12-28T06:12:49;18.37;;;5.03;;
11006;SDS011;8186;57.652;11.968;2023-12-28T06:15:15;18.23;;;5.40;;
11006;SDS011;8186;57.652;11.968;2023-12-28T06:17:41;21.23;;;5.73;;
11006;SDS011;8186;57.652;11.968;2023-12-28T06:20:09;30.67;;;5.97;;
11006;SDS011;8186;57.652;11.968;2023-12-28T06:22:36;18.63;;;4.97;;
11006;SDS011;8186;57.652;11.968;2023-12-28T06:25:05;23.80;;;6.07;;
11006;SDS011;8186;57.652;11.968;2023-12-28T06:27:33;19.30;;;4.50;;
11006;SDS011;8186;57.652;11.968;2023-12-28T06:29:59;22.00;;;5.03;;
11006;SDS011;8186;57.652;11.968;2023-12-28T06:32:26;19.53;;;4.47;;
11006;SDS011;8186;57.652;11.968;2023-12-28T06:34:53;23.47;;;5.53;;
11006;SDS011;8186;57.652;11.968;2023-12-28T06:37:20;23.17;;;5.13;;
11006;SDS011;8186;57.652;11.968;2023-12-28T06:39:47;24.00;;;4.80;;
11006;SDS011;8186;57.652;11.968;2023-12-28T06:42:15;24.73;;;5.40;;
11006;SDS011;8186;57.652;11.968;2023-12-28T06:44:42;20.80;;;5.80;;
11006;SDS011;8186;57.652;11.968;2023-12-28T06:47:09;20.40;;;4.50;;
11006;SDS011;8186;57.652;11.968;2023-12-28T06:49:35;26.60;;;5.57;;
11006;SDS011;8186;57.652;11.968;2023-12-28T06:52:02;35.70;;;6.07;;
11006;SDS011;8186;57.652;11.968;2023-12-28T06:54:29;22.23;;;5.00;;
11006;SDS011;8186;57.652;11.968;2023-12-28T06:56:56;17.50;;;4.53;;
11006;SDS011;8186;57.652;11.968;2023-12-28T06:59:24;16.27;;;4.87;;
11006;SDS011;8186;57.652;11.968;2023-12-28T07:01:51;24.00;;;4.83;;
11006;SDS011;8186;57.652;11.968;2023-12-28T07:04:18;23.47;;;5.03;;
11006;SDS011;8186;57.652;11.968;2023-12-28T07:06:44;26.13;;;5.00;;
11006;SDS011;8186;57.652;11.968;2023-12-28T07:09:11;19.20;;;4.63;;
11006;SDS011;8186;57.652;11.968;2023-12-28T07:11:38;23.67;;;5.60;;
11006;SDS011;8186;57.652;11.968;2023-12-28T07:14:05;20.47;;;4.67;;
11006;SDS011;8186;57.652;11.968;2023-12-28T07:16:33;22.17;;;3.97;;
11006;SDS011;8186;57.652;11.968;2023-12-28T07:19:00;20.57;;;4.40;;
11006;SDS011;8186;57.652;11.968;2023-12-28T07:21:26;24.53;;;5.03;;
11006;SDS011;8186;57.652;11.968;2023-12-28T07:23:53;28.40;;;5.03;;
11006;SDS011;8186;57.652;11.968;2023-12-28T07:26:20;19.73;;;4.77;;
11006;SDS011;8186;57.652;11.968;2023-12-28T07:28:46;19.73;;;4.53;;
11006;SDS011;8186;57.652;11.968;2023-12-28T07:31:22;26.63;;;4.20;;
11006;SDS011;8186;57.652;11.968;2023-12-28T07:33:51;20.77;;;4.43;;
11006;SDS011;8186;57.652;11.968;2023-12-28T07:36:17;20.03;;;4.57;;
11006;SDS011;8186;57.652;11.968;2023-12-28T07:38:44;21.40;;;5.10;;
11006;SDS011;8186;57.652;11.968;2023-12-28T07:41:11;26.17;;;5.10;;
11006;SDS011;8186;57.652;11.968;2023-12-28T07:43:38;33.77;;;5.13;;
11006;SDS011;8186;57.652;11.968;2023-12-28T07:46:04;20.53;;;4.10;;
11006;SDS011;8186;57.652;11.968;2023-12-28T07:48:31;23.83;;;4.37;;
11006;SDS011;8186;57.652;11.968;2023-12-28T07:51:03;26.57;;;5.17;;
11006;SDS011;8186;57.652;11.968;2023-12-28T07:53:30;20.93;;;4.87;;
11006;SDS011;8186;57.652;11.968;2023-12-28T07:55:57;34.10;;;5.67;;
11006;SDS011;8186;57.652;11.968;2023-12-28T07:58:23;18.17;;;4.00;;
11006;SDS011;8186;57.652;11.968;2023-12-28T08:00:50;16.10;;;2.90;;
11006;SDS011;8186;57.652;11.968;2023-12-28T08:03:18;24.23;;;4.73;;
11006;SDS011;8186;57.652;11.968;2023-12-28T08:05:45;18.97;;;4.10;;
11006;SDS011;8186;57.652;11.968;2023-12-28T08:08:13;22.10;;;4.60;;
11006;SDS011;8186;57.652;11.968;2023-12-28T08:10:39;21.33;;;4.20;;
11006;SDS011;8186;57.652;11.968;2023-12-28T08:13:06;28.17;;;5.47;;
11006;SDS011;8186;57.652;11.968;2023-12-28T08:15:33;22.63;;;4.57;;
11006;SDS011;8186;57.652;11.968;2023-12-28T08:18:00;18.67;;;5.20;;
11006;SDS011;8186;57.652;11.968;2023-12-28T08:20:27;26.33;;;4.90;;
11006;SDS011;8186;57.652;11.968;2023-12-28T08:22:53;24.97;;;5.73;;
11006;SDS011;8186;57.652;11.968;2023-12-28T08:25:21;24.00;;;4.37;;
11006;SDS011;8186;57.652;11.968;2023-12-28T08:27:48;18.00;;;4.00;;
11006;SDS011;8186;57.652;11.968;2023-12-28T08:30:15;19.23;;;3.43;;
11006;SDS011;8186;57.652;11.968;2023-12-28T08:32:42;17.90;;;4.53;;
11006;SDS011;8186;57.652;11.968;2023-12-28T08:35:09;17.07;;;4.00;;
11006;SDS011;8186;57.652;11.968;2023-12-28T08:37:36;17.40;;;3.70;;
11006;SDS011;8186;57.652;11.968;2023-12-28T08:40:03;16.07;;;3.83;;
11006;SDS011;8186;57.652;11.968;2023-12-28T08:42:32;20.07;;;4.50;;
11006;SDS011;8186;57.652;11.968;2023-12-28T08:44:59;17.40;;;3.40;;
11006;SDS011;8186;57.652;11.968;2023-12-28T08:47:26;15.00;;;4.00;;
11006;SDS011;8186;57.652;11.968;2023-12-28T08:49:52;18.90;;;4.37;;
11006;SDS011;8186;57.652;11.968;2023-12-28T08:52:19;20.03;;;3.80;;
11006;SDS011;8186;57.652;11.968;2023-12-28T08:54:46;23.33;;;3.50;;
11006;SDS011;8186;57.652;11.968;2023-12-28T08:57:13;18.77;;;4.63;;
11006;SDS011;8186;57.652;11.968;2023-12-28T08:59:41;19.97;;;3.67;;
11006;SDS011;8186;57.652;11.968;2023-12-28T09:02:08;16.20;;;4.37;;
11006;SDS011;8186;57.652;11.968;2023-12-28T09:04:35;21.37;;;4.07;;
11006;SDS011;8186;57.652;11.968;2023-12-28T09:07:01;15.77;;;3.83;;
11006;SDS011;8186;57.652;11.968;2023-12-28T09:09:28;11.20;;;3.70;;
11006;SDS011;8186;57.652;11.968;2023-12-28T09:11:55;18.17;;;3.57;;
11006;SDS011;8186;57.652;11.968;2023-12-28T09:14:22;15.93;;;3.97;;
11006;SDS011;8186;57.652;11.968;2023-12-28T09:16:50;17.83;;;3.60;;
11006;SDS011;8186;57.652;11.968;2023-12-28T09:19:17;15.87;;;3.87;;
11006;SDS011;8186;57.652;11.968;2023-12-28T09:21:43;17.80;;;3.60;;
11006;SDS011;8186;57.652;11.968;2023-12-28T09:24:10;16.97;;;4.20;;
11006;SDS011;8186;57.652;11.968;2023-12-28T09:26:37;11.80;;;3.13;;
11006;SDS011;8186;57.652;11.968;2023-12-28T09:29:04;9.30;;;2.60;;
11006;SDS011;8186;57.652;11.968;2023-12-28T09:31:30;8.03;;;2.30;;
11006;SDS011;8186;57.652;11.968;2023-12-28T09:33:59;12.73;;;3.03;;
11006;SDS011;8186;57.652;11.968;2023-12-28T09:36:25;9.90;;;2.57;;
11006;SDS011;8186;57.652;11.968;2023-12-28T09:38:52;10.53;;;2.63;;
11006;SDS011;8186;57.652;11.968;2023-12-28T09:41:19;11.00;;;2.60;;
11006;SDS011;8186;57.652;11.968;2023-12-28T09:43:50;11.43;;;2.10;;
11006;SDS011;8186;57.652;11.968;2023-12-28T09:46:20;10.40;;;2.77;;
11006;SDS011;8186;57.652;11.968;2023-12-28T09:48:48;10.37;;;2.47;;
11006;SDS011;8186;57.652;11.968;2023-12-28T09:51:16;5.83;;;2.20;;
11006;SDS011;8186;57.652;11.968;2023-12-28T09:53:43;14.20;;;3.43;;
11006;SDS011;8186;57.652;11.968;2023-12-28T09:56:11;11.37;;;3.40;;
11006;SDS011;8186;57.652;11.968;2023-12-28T09:58:39;14.27;;;2.67;;
11006;SDS011;8186;57.652;11.968;2023-12-28T10:01:06;11.67;;;2.80;;
11006;SDS011;8186;57.652;11.968;2023-12-28T10:03:33;9.30;;;3.53;;
11006;SDS011;8186;57.652;11.968;2023-12-28T10:06:00;14.93;;;3.63;;
11006;SDS011;8186;57.652;11.968;2023-12-28T10:08:28;12.43;;;3.60;;
11006;SDS011;8186;57.652;11.968;2023-12-28T10:10:55;22.97;;;4.30;;
11006;SDS011;8186;57.652;11.968;2023-12-28T10:13:24;20.30;;;4.33;;
11006;SDS011;8186;57.652;11.968;2023-12-28T10:15:51;20.60;;;3.97;;
11006;SDS011;8186;57.652;11.968;2023-12-28T10:18:18;20.77;;;4.33;;
11006;SDS011;8186;57.652;11.968;2023-12-28T10:20:54;19.10;;;4.07;;
11006;SDS011;8186;57.652;11.968;2023-12-28T10:23:20;18.50;;;4.40;;
11006;SDS011;8186;57.652;11.968;2023-12-28T10:25:49;26.17;;;5.07;;
11006;SDS011;8186;57.652;11.968;2023-12-28T10:28:18;24.43;;;4.93;;
11006;SDS011;8186;57.652;11.968;2023-12-28T10:30:45;21.93;;;4.60;;
11006;SDS011;8186;57.652;11.968;2023-12-28T10:33:13;20.80;;;4.27;;
11006;SDS011;8186;57.652;11.968;2023-12-28T10:35:39;23.37;;;4.00;;
11006;SDS011;8186;57.652;11.968;2023-12-28T10:38:06;24.90;;;5.80;;
11006;SDS011;8186;57.652;11.968;2023-12-28T10:40:34;19.03;;;4.53;;
11006;SDS011;8186;57.652;11.968;2023-12-28T10:43:04;25.07;;;5.33;;
11006;SDS011;8186;57.652;11.968;2023-12-28T10:45:32;12.13;;;2.77;;
11006;SDS011;8186;57.652;11.968;2023-12-28T10:48:04;20.40;;;4.63;;
11006;SDS011;8186;57.652;11.968;2023-12-28T10:50:35;17.97;;;4.07;;
11006;SDS011;8186;57.652;11.968;2023-12-28T10:53:07;27.77;;;4.97;;
11006;SDS011;8186;57.652;11.968;2023-12-28T10:55:40;24.97;;;4.67;;
11006;SDS011;8186;57.652;11.968;2023-12-28T10:58:12;20.37;;;5.57;;
11006;SDS011;8186;57.652;11.968;2023-12-28T11:00:43;14.73;;;4.37;;
11006;SDS011;8186;57.652;11.968;2023-12-28T11:03:27;31.17;;;5.00;;
11006;SDS011;8186;57.652;11.968;2023-12-28T11:05:57;20.03;;;4.57;;
11006;SDS011;8186;57.652;11.968;2023-12-28T11:08:24;30.60;;;6.07;;
11006;SDS011;8186;57.652;11.968;2023-12-28T11:10:51;31.30;;;5.13;;
11006;SDS011;8186;57.652;11.968;2023-12-28T11:13:20;30.33;;;7.33;;
11006;SDS011;8186;57.652;11.968;2023-12-28T11:15:47;27.57;;;5.73;;
11006;SDS011;8186;57.652;11.968;2023-12-28T11:18:16;26.43;;;6.93;;
11006;SDS011;8186;57.652;11.968;2023-12-28T11:20:46;28.67;;;5.53;;
11006;SDS011;8186;57.652;11.968;2023-12-28T11:23:13;29.80;;;6.83;;
11006;SDS011;8186;57.652;11.968;2023-12-28T11:25:40;24.03;;;5.87;;
11006;SDS011;8186;57.652;11.968;2023-12-28T11:28:10;34.10;;;6.07;;
11006;SDS011;8186;57.652;11.968;2023-12-28T11:30:39;41.57;;;6.17;;
11006;SDS011;8186;57.652;11.968;2023-12-28T11:33:07;29.40;;;5.83;;
11006;SDS011;8186;57.652;11.968;2023-12-28T11:35:36;26.80;;;6.37;;
11006;SDS011;8186;57.652;11.968;2023-12-28T11:38:03;29.93;;;4.80;;
11006;SDS011;8186;57.652;11.968;2023-12-28T11:40:39;27.83;;;5.03;;
11006;SDS011;8186;57.652;11.968;2023-12-28T11:43:14;14.93;;;2.70;;
11006;SDS011;8186;57.652;11.968;2023-12-28T11:45:47;7.80;;;2.10;;
11006;SDS011;8186;57.652;11.968;2023-12-28T11:48:22;7.80;;;2.27;;
11006;SDS011;8186;57.652;11.968;2023-12-28T11:50:48;11.43;;;2.07;;
11006;SDS011;8186;57.652;11.968;2023-12-28T11:53:15;8.40;;;2.00;;
11006;SDS011;8186;57.652;11.968;2023-12-28T11:55:43;9.60;;;1.97;;
11006;SDS011;8186;57.652;11.968;2023-12-28T11:58:10;10.30;;;1.77;;
11006;SDS011;8186;57.652;11.968;2023-12-28T12:00:37;9.27;;;2.10;;
11006;SDS011;8186;57.652;11.968;2023-12-28T12:03:05;8.90;;;2.13;;
11006;SDS011;8186;57.652;11.968;2023-12-28T12:05:32;8.57;;;1.80;;
11006;SDS011;8186;57.652;11.968;2023-12-28T12:07:59;12.00;;;2.27;;
11006;SDS011;8186;57.652;11.968;2023-12-28T12:10:26;6.57;;;1.90;;
11006;SDS011;8186;57.652;11.968;2023-12-28T12:12:53;6.47;;;1.93;;
11006;SDS011;8186;57.652;11.968;2023-12-28T12:15:20;8.70;;;2.30;;
11006;SDS011;8186;57.652;11.968;2023-12-28T12:17:46;7.27;;;1.80;;
11006;SDS011;8186;57.652;11.968;2023-12-28T12:20:15;8.93;;;2.10;;
11006;SDS011;8186;57.652;11.968;2023-12-28T12:22:42;10.53;;;2.47;;
11006;SDS011;8186;57.652;11.968;2023-12-28T12:25:09;15.10;;;2.57;;
11006;SDS011;8186;57.652;11.968;2023-12-28T12:27:36;11.60;;;2.33;;
11006;SDS011;8186;57.652;11.968;2023-12-28T12:30:04;9.13;;;2.30;;
11006;SDS011;8186;57.652;11.968;2023-12-28T12:32:31;10.20;;;2.30;;
11006;SDS011;8186;57.652;11.968;2023-12-28T12:34:58;11.80;;;2.20;;
11006;SDS011;8186;57.652;11.968;2023-12-28T12:37:26;9.83;;;2.20;;
11006;SDS011;8186;57.652;11.968;2023-12-28T12:39:53;6.73;;;1.90;;
11006;SDS011;8186;57.652;11.968;2023-12-28T12:42:20;7.30;;;1.80;;
11006;SDS011;8186;57.652;11.968;2023-12-28T12:44:47;7.23;;;1.93;;
11006;SDS011;8186;57.652;11.968;2023-12-28T12:47:14;9.67;;;1.87;;
11006;SDS011;8186;57.652;11.968;2023-12-28T12:49:40;5.80;;;1.60;;
11006;SDS011;8186;57.652;11.968;2023-12-28T12:52:09;8.43;;;1.97;;
11006;SDS011;8186;57.652;11.968;2023-12-28T12:54:37;10.13;;;1.80;;
11006;SDS011;8186;57.652;11.968;2023-12-28T12:57:04;6.63;;;1.43;;
11006;SDS011;8186;57.652;11.968;2023-12-28T12:59:32;7.83;;;1.43;;
11006;SDS011;8186;57.652;11.968;2023-12-28T13:02:00;10.00;;;1.97;;
11006;SDS011;8186;57.652;11.968;2023-12-28T13:04:27;4.53;;;1.50;;
11006;SDS011;8186;57.652;11.968;2023-12-28T13:06:53;4.57;;;1.60;;
11006;SDS011;8186;57.652;11.968;2023-12-28T13:09:20;6.00;;;1.70;;
11006;SDS011;8186;57.652;11.968;2023-12-28T13:11:48;10.87;;;1.70;;
11006;SDS011;8186;57.652;11.968;2023-12-28T13:14:16;11.73;;;2.00;;
11006;SDS011;8186;57.652;11.968;2023-12-28T13:16:43;10.33;;;1.90;;
11006;SDS011;8186;57.652;11.968;2023-12-28T13:19:10;13.13;;;2.07;;
11006;SDS011;8186;57.652;11.968;2023-12-28T13:21:37;6.83;;;1.80;;
11006;SDS011;8186;57.652;11.968;2023-12-28T13:24:04;13.07;;;2.97;;
11006;SDS011;8186;57.652;11.968;2023-12-28T13:26:31;10.03;;;1.93;;
11006;SDS011;8186;57.652;11.968;2023-12-28T13:28:59;9.37;;;1.80;;
11006;SDS011;8186;57.652;11.968;2023-12-28T13:31:26;10.83;;;2.23;;
11006;SDS011;8186;57.652;11.968;2023-12-28T13:33:53;8.20;;;1.73;;
11006;SDS011;8186;57.652;11.968;2023-12-28T13:36:20;11.70;;;2.13;;
11006;SDS011;8186;57.652;11.968;2023-12-28T13:38:47;12.37;;;2.13;;
11006;SDS011;8186;57.652;11.968;2023-12-28T13:41:14;9.53;;;2.17;;
11006;SDS011;8186;57.652;11.968;2023-12-28T13:43:41;10.70;;;1.80;;
11006;SDS011;8186;57.652;11.968;2023-12-28T13:46:09;9.90;;;1.73;;
11006;SDS011;8186;57.652;11.968;2023-12-28T13:48:36;13.03;;;2.60;;
11006;SDS011;8186;57.652;11.968;2023-12-28T13:51:04;8.07;;;1.73;;
11006;SDS011;8186;57.652;11.968;2023-12-28T13:53:31;8.90;;;1.63;;
11006;SDS011;8186;57.652;11.968;2023-12-28T13:56:00;12.93;;;2.17;;
11006;SDS011;8186;57.652;11.968;2023-12-28T13:58:28;11.80;;;2.60;;
11006;SDS011;8186;57.652;11.968;2023-12-28T14:00:55;11.57;;;2.70;;
11006;SDS011;8186;57.652;11.968;2023-12-28T14:03:23;10.97;;;1.90;;
11006;SDS011;8186;57.652;11.968;2023-12-28T14:05:49;5.40;;;1.93;;
11006;SDS011;8186;57.652;11.968;2023-12-28T14:08:16;12.87;;;1.87;;
11006;SDS011;8186;57.652;11.968;2023-12-28T14:10:43;8.27;;;2.03;;
11006;SDS011;8186;57.652;11.968;2023-12-28T14:13:10;12.43;;;1.90;;
11006;SDS011;8186;57.652;11.968;2023-12-28T14:15:36;9.97;;;2.00;;
11006;SDS011;8186;57.652;11.968;2023-12-28T14:18:04;11.80;;;2.23;;
11006;SDS011;8186;57.652;11.968;2023-12-28T14:20:32;16.20;;;2.23;;
11006;SDS011;8186;57.652;11.968;2023-12-28T14:22:59;7.83;;;1.90;;
11006;SDS011;8186;57.652;11.968;2023-12-28T14:25:26;6.30;;;1.70;;
11006;SDS011;8186;57.652;11.968;2023-12-28T14:27:54;6.13;;;2.03;;
11006;SDS011;8186;57.652;11.968;2023-12-28T14:30:21;7.80;;;1.97;;
11006;SDS011;8186;57.652;11.968;2023-12-28T14:32:49;12.70;;;2.17;;
11006;SDS011;8186;57.652;11.968;2023-12-28T14:35:17;7.77;;;2.03;;
11006;SDS011;8186;57.652;11.968;2023-12-28T14:37:49;12.27;;;3.33;;
11006;SDS011;8186;57.652;11.968;2023-12-28T14:40:16;8.93;;;2.03;;
11006;SDS011;8186;57.652;11.968;2023-12-28T14:42:43;7.80;;;2.30;;